Αναφορές Αεροδρομίων

 

LGTS - Thessaloniki/Mik, Greece
Distance from station: ΝΔ 15km
Ενημερώθηκε: 23/05/2019 00:20
Αίθριος
Αίθριος
 Ανεμος από ΝΝΑ
Ανεμος: ΝΝΑ 11 km/h
Θερμοκρασία: 19°C
Σημείο Δρόσου: 12°C
Υγρασία: 64%
Βαρόμετρο: 1012 hPa
Περίληψη: Αίθριος
Visibility: greater than 10 km
2019/05/22 21:20 LGTS 222120Z 15006KT CAVOK 19/12 Q1012 NOSIG
LGKZ - Kozani (civ/Army, Greece
Distance from station: ΔΝΔ 113km
Ενημερώθηκε: 22/05/2019 14:50
NOT Current
Λίγα Σύννεφα
Λίγα Σύννεφα
 Ανεμος από calm
Ανεμος: Απνοια
Θερμοκρασία: 22°C
Σημείο Δρόσου: 6°C
Υγρασία: 36%
Βαρόμετρο: 1015 hPa
Clouds: Λίγα Σύννεφα
Visibility: 10 km
Cloud details: Λίγα Σύννεφα 2134 m
2019/05/22 11:50 LGKZ 221150Z 00000KT 9999 FEW070 22/06 Q1015
 
LGKV - Kavala/Chrisoupo, Greece
Distance from station: ΑΒΑ 132km
Ενημερώθηκε: 22/05/2019 23:50
Αίθριος
Αίθριος
 Ανεμος από ΒΒΑ
Ανεμος: ΒΒΑ 7 km/h
Θερμοκρασία: 17°C
Σημείο Δρόσου: 14°C
Υγρασία: 83%
Βαρόμετρο: 1012 hPa
Περίληψη: Αίθριος
Visibility: greater than 10 km
2019/05/22 20:50 LGKV 222050Z 02004KT CAVOK 17/14 Q1012
LGBL - Nea Anchialos, Greece
Distance from station: Ν 156km
Ενημερώθηκε: 22/05/2019 23:50
Λίγα Σύννεφα
Λίγα Σύννεφα
 Ανεμος από Δ
Ανεμος: Δ 7 km/h
Θερμοκρασία: 14°C
Σημείο Δρόσου: 10°C
Υγρασία: 77%
Βαρόμετρο: 1013 hPa
Clouds: Λίγα Σύννεφα
Visibility: 10 km
Cloud details: Λίγα Σύννεφα 914 m
2019/05/22 20:50 LGBL 222050Z 28004KT 9999 FEW030 14/10 Q1013
 
LGSK - Skiathos Island, Greece
Distance from station: ΝΝΑ 161km
Ενημερώθηκε: 22/05/2019 20:50
NOT Current
Λίγα Σύννεφα
Λίγα Σύννεφα
 Ανεμος από varies
Ανεμος: varies 6 km/h
Θερμοκρασία: 20°C
Σημείο Δρόσου: 13°C
Υγρασία: 64%
Βαρόμετρο: 1012 hPa
Clouds: Λίγα Σύννεφα
Visibility: 10 km
Cloud details: Λίγα Σύννεφα 914 m
2019/05/22 17:50 LGSK 221750Z VRB03KT 9999 FEW030 20/13 Q1012
LWSK - Skopje/Petrovac, Macedonia
Distance from station: ΒΔ 195km
Ενημερώθηκε: 23/05/2019 00:30
Αίθριος
Αίθριος
 Ανεμος από varies
Ανεμος: varies 4 km/h
Θερμοκρασία: 14°C
Σημείο Δρόσου: 11°C
Υγρασία: 82%
Βαρόμετρο: 1014 hPa
Περίληψη: Αίθριος
Visibility: greater than 10 km
2019/05/22 21:30 LWSK 222130Z VRB02KT CAVOK 14/11 Q1014 NOSIG
 
LGLM - Limnos Island Ar, Greece
Distance from station: ΑΝΑ 196km
Ενημερώθηκε: 22/05/2019 23:50
Λίγα Σύννεφα
Λίγα Σύννεφα
 Ανεμος από ΒΔ
Ανεμος: ΒΔ 6 km/h
Θερμοκρασία: 17°C
Σημείο Δρόσου: 15°C
Υγρασία: 88%
Βαρόμετρο: 1012 hPa
Clouds: Λίγα Σύννεφα
Visibility: 10 km
Cloud details: Λίγα Σύννεφα 549 m
2019/05/22 20:50 LGLM 222050Z 32003KT 9999 FEW018 17/15 Q1012
LWOH - Ohrid, Macedonia
Distance from station: ΔΒΔ 202km
Ενημερώθηκε: 22/05/2019 21:30
NOT Current
Λίγα Σύννεφα
Λίγα Σύννεφα
 Ανεμος από varies
Ανεμος: varies 2 km/h
Θερμοκρασία: 14°C
Σημείο Δρόσου: 8°C
Υγρασία: 67%
Βαρόμετρο: 1015 hPa
Clouds: Λίγα Σύννεφα
Visibility: 10 km
Cloud details: Λίγα Σύννεφα 1524 m
2019/05/22 18:30 LWOH 221830Z VRB01KT 9999 FEW050 14/08 Q1015
 
LGSY - Skiros, Greece
Distance from station: ΝΑ 217km
Ενημερώθηκε: 22/05/2019 23:50
Μερικώς νεφελώδης
Μερικώς νεφελώδης
 Ανεμος από ΝΝΔ
Ανεμος: ΝΝΔ 20 km/h
Θερμοκρασία: 20°C
Σημείο Δρόσου: 9°C
Υγρασία: 49%
Βαρόμετρο: 1013 hPa
Clouds: Μερικώς νεφελώδης
Visibility: 10 km
Cloud details: Μερικώς νεφελώδης 1372 m
2019/05/22 20:50 LGSY 222050Z 21011KT 9999 SCT045 20/09 Q1013 RMK BKN090 BKN200 BLU
LGIO - Ioannina, Greece
Distance from station: ΔΝΔ 218km
Ενημερώθηκε: 22/05/2019 22:20
NOT Current
Λίγα Σύννεφα
Λίγα Σύννεφα
 Ανεμος από varies
Ανεμος: varies 0 km/h
Θερμοκρασία: 15°C
Σημείο Δρόσου: 11°C
Υγρασία: 77%
Βαρόμετρο: 1015 hPa
Clouds: Λίγα Σύννεφα
Visibility: 10 km
Cloud details: Λίγα Σύννεφα 1067 m
2019/05/22 19:20 LGIO 221920Z /////KT 9999 FEW035 15/11 Q1015
 
LBPD - Plovdiv, Bulgaria
Distance from station: ΒΑ 222km
Ενημερώθηκε: 23/05/2019 00:30
Μερικώς νεφελώδης
Μερικώς νεφελώδης
 Ανεμος από ΔΒΔ
Ανεμος: ΔΒΔ 19 km/h
Θερμοκρασία: 19°C
Σημείο Δρόσου: 10°C
Υγρασία: 56%
Βαρόμετρο: 1012 hPa
Clouds: Μερικώς νεφελώδης
Visibility: 10 km
Cloud details: Μερικώς νεφελώδης 2042 m
2019/05/22 21:30 LBPD 222130Z AUTO 29010KT 9999 SCT067 19/10 Q1012
LBSF - Sofia (observato, Bulgaria
Distance from station: Β 229km
Ενημερώθηκε: 23/05/2019 00:30
Λίγα Σύννεφα
Λίγα Σύννεφα
 Ανεμος από calm
Ανεμος: Απνοια
Θερμοκρασία: 12°C
Σημείο Δρόσου: 11°C
Υγρασία: 94%
Βαρόμετρο: 1014 hPa
Clouds: Λίγα Σύννεφα
Visibility: 10 km
Cloud details: Λίγα Σύννεφα 2103 m
2019/05/22 21:30 LBSF 222130Z 00000KT 9999 FEW069 12/11 Q1014 NOSIG
 
LGAL - Alexandroupolis, Greece
Distance from station: Α 242km
Ενημερώθηκε: 22/05/2019 22:20
NOT Current
Λίγα Σύννεφα
Λίγα Σύννεφα
 Ανεμος από varies
Ανεμος: varies 6 km/h
Θερμοκρασία: 19°C
Σημείο Δρόσου: 16°C
Υγρασία: 83%
Βαρόμετρο: 1012 hPa
Clouds: Λίγα Σύννεφα
Visibility: 10 km
Cloud details: Λίγα Σύννεφα 610 m
2019/05/22 19:20 LGAL 221920Z VRB03KT 9999 FEW020 19/16 Q1012
LGPZ - Preveza/Aktion, Greece
Distance from station: ΝΔ 274km
Ενημερώθηκε: 22/05/2019 23:50
Λίγα Σύννεφα
Λίγα Σύννεφα
 Ανεμος από ΝΔ
Ανεμος: ΝΔ 13 km/h
Θερμοκρασία: 18°C
Σημείο Δρόσου: 13°C
Υγρασία: 73%
Βαρόμετρο: 1017 hPa
Clouds: Λίγα Σύννεφα
Visibility: 10 km
Cloud details: Λίγα Σύννεφα 762 m
2019/05/22 20:50 LGPZ 222050Z 23007KT 9999 FEW025 18/13 Q1017
 
BKPR - Prishtina, Yugoslavia
Distance from station: ΒΔ 280km
Ενημερώθηκε: 23/05/2019 00:30
Μερικώς νεφελώδης
Μερικώς νεφελώδης
 Ανεμος από varies
Ανεμος: varies 6 km/h
Θερμοκρασία: 15°C
Σημείο Δρόσου: 5°C
Υγρασία: 51%
Βαρόμετρο: 1015 hPa
Clouds: Μερικώς νεφελώδης
Visibility: 10 km
Cloud details: Λίγα Σύννεφα 1829 m
Μερικώς νεφελώδης 2134 m
2019/05/22 21:30 BKPR 222130Z VRB03KT 9999 FEW060 SCT070 15/05 Q1015 NOSIG
LGEL - Elefsis (hel-Afb, Greece
Distance from station: Ν 284km
Ενημερώθηκε: 23/05/2019 00:20
Σχεδόν νεφελώδης
Σχεδόν νεφελώδης
 Ανεμος από Β
Ανεμος: Β 13 km/h
Θερμοκρασία: 19°C
Σημείο Δρόσου: 11°C
Υγρασία: 60%
Βαρόμετρο: 1012 hPa
Clouds: Σχεδόν νεφελώδης
Visibility: 10 km
Cloud details: Μερικώς νεφελώδης 762 m
Σχεδόν νεφελώδης 2134 m
2019/05/22 21:20 LGEL 222120Z 01007KT 9999 SCT025 BKN070 19/11 Q1012
 
LATI - Tirana, Albania
Distance from station: ΔΒΔ 291km
Ενημερώθηκε: 23/05/2019 00:20
Αίθριος
Αίθριος
 Ανεμος από ΝΑ
Ανεμος: ΝΑ 6 km/h
Θερμοκρασία: 14°C
Σημείο Δρόσου: 11°C
Υγρασία: 82%
Βαρόμετρο: 1016 hPa
Περίληψη: Αίθριος
Visibility: greater than 10 km
2019/05/22 21:20 LATI 222120Z 14003KT CAVOK 14/11 Q1016 NOSIG
LGKR - Ioannis Kapodist, Greece
Distance from station: ΔΝΔ 292km
Ενημερώθηκε: 23/05/2019 00:20
Λίγα Σύννεφα
Λίγα Σύννεφα
 Ανεμος από calm
Ανεμος: Απνοια
Θερμοκρασία: 16°C
Σημείο Δρόσου: 12°C
Υγρασία: 77%
Βαρόμετρο: 1015 hPa
Clouds: Λίγα Σύννεφα
Visibility: 10 km
Cloud details: Λίγα Σύννεφα 914 m
2019/05/22 21:20 LGKR 222120Z 00000KT 9999 FEW030 16/12 Q1015 NOSIG